Time;durP1;ratioP1;P1;durP2;ratioP2;P2;SDS_P1;SDS_P2;PMS_P1;PMS_P2;Temp;Humidity;BMP_temperature;BMP_pressure;BME280_temperature;BME280_humidity;BME280_pressure;Samples;Min_cycle;Max_cycle;Signal;HPM_P1;HPM_P2
2022/03/09 00:02:15;;;;;;;33.08;23.08;;;1.70;98.70;;;1.54;69.91;102053.25;4954779;28;20223;-77
2022/03/09 00:04:44;;;;;;;39.92;23.25;;;1.80;99.80;;;1.54;69.81;102053.25;4954971;29;20180;-76
2022/03/09 00:07:12;;;;;;;32.47;21.73;;;1.80;98.80;;;1.39;69.92;102053.53;4954880;29;20263;-75
2022/03/09 00:09:41;;;;;;;28.80;20.17;;;1.70;99.00;;;1.30;70.23;102050.59;4937546;29;20283;-76
2022/03/09 00:12:11;;;;;;;28.27;21.00;;;1.70;99.70;;;1.20;70.77;102052.25;4937606;29;20224;-75
2022/03/09 00:14:41;;;;;;;26.05;20.50;;;1.60;99.90;;;1.16;70.93;102052.59;4937046;29;20192;-75
2022/03/09 00:17:11;;;;;;;33.60;20.48;;;1.50;99.90;;;1.14;70.86;102057.19;4937920;29;20208;-75
2022/03/09 00:19:40;;;;;;;31.58;22.85;;;1.40;99.90;;;1.39;70.42;102053.53;4937779;29;20216;-75
2022/03/09 00:22:09;;;;;;;32.08;22.42;;;1.60;99.90;;;1.34;70.22;102048.56;4955607;28;20675;-74
2022/03/09 00:24:38;;;;;;;43.60;21.15;;;1.60;99.90;;;1.16;70.55;102048.09;4938402;29;20247;-75
2022/03/09 00:27:06;;;;;;;24.45;19.45;;;1.50;99.90;;;1.32;70.57;102050.47;4955096;29;20251;-76
2022/03/09 00:29:38;;;;;;;31.33;20.88;;;1.50;99.90;;;1.15;70.57;102045.56;4955568;29;20211;-75
2022/03/09 00:32:11;;;;;;;33.53;22.75;;;1.50;99.90;;;1.00;70.92;102047.53;4957658;28;20212;-75
2022/03/09 00:34:41;;;;;;;30.83;22.85;;;1.40;99.90;;;0.96;70.93;102045.22;4962340;29;20188;-76
2022/03/09 00:37:09;;;;;;;30.25;24.73;;;1.30;99.90;;;0.91;71.40;102042.03;4959012;29;20172;-75
2022/03/09 00:39:38;;;;;;;37.92;27.55;;;1.30;99.90;;;1.03;70.75;102041.97;4958689;29;20199;-75
2022/03/09 00:42:08;;;;;;;39.33;28.77;;;1.30;99.90;;;0.90;70.81;102037.66;4958658;28;20208;-74
2022/03/09 00:44:37;;;;;;;38.22;26.90;;;1.20;99.90;;;0.94;70.96;102039.97;4957998;29;20192;-77
2022/03/09 00:47:06;;;;;;;35.40;25.15;;;1.20;99.90;;;1.08;70.44;102047.81;4941966;29;20188;-76
2022/03/09 00:49:39;;;;;;;41.85;28.35;;;1.30;99.90;;;1.14;69.38;102047.38;4958399;29;20170;-76
2022/03/09 00:52:08;;;;;;;42.63;30.38;;;1.30;99.90;;;1.13;69.21;102048.31;4940896;29;20588;-74
2022/03/09 00:54:38;;;;;;;44.13;31.15;;;1.30;99.30;;;1.00;69.22;102042.19;4956756;29;20196;-76
2022/03/09 00:57:07;;;;;;;49.78;32.25;;;1.30;98.10;;;0.90;69.83;102046.50;4958453;29;20176;-76
2022/03/09 00:59:36;;;;;;;43.40;31.65;;;1.20;98.10;;;1.04;69.25;102048.16;4940828;29;20279;-76
2022/03/09 01:02:05;;;;;;;40.38;29.42;;;1.30;98.00;;;1.07;68.92;102048.75;4958140;28;20211;-76
2022/03/09 01:04:35;;;;;;;33.30;29.20;;;1.30;96.90;;;1.03;68.98;102046.44;4959569;29;20535;-76
2022/03/09 01:07:06;;;;;;;33.13;27.92;;;1.30;95.80;;;0.96;69.13;102045.22;4957998;29;20184;-76
2022/03/09 01:09:35;;;;;;;41.78;30.40;;;1.20;95.50;;;1.02;68.66;102052.72;4957641;29;20177;-74
2022/03/09 01:12:05;;;;;;;41.45;29.48;;;1.20;96.20;;;0.95;68.91;102044.34;4957647;28;20235;-76
2022/03/09 01:14:34;;;;;;;44.55;30.60;;;1.20;95.80;;;0.79;69.61;102049.94;4957288;29;20185;-75
2022/03/09 01:17:04;;;;;;;44.15;31.65;;;1.10;97.20;;;0.67;70.28;102044.66;4957269;29;20595;-74
2022/03/09 01:19:33;;;;;;;42.25;31.77;;;1.00;99.00;;;0.73;70.07;102044.19;4957088;29;20207;-75
2022/03/09 01:22:02;;;;;;;43.67;32.88;;;1.00;99.90;;;0.74;70.80;102043.22;4940163;29;20767;-75
2022/03/09 01:24:33;;;;;;;43.97;31.92;;;1.00;99.90;;;0.86;70.28;102051.22;4967802;29;20191;-75
2022/03/09 01:27:02;;;;;;;46.88;30.98;;;1.00;99.90;;;0.83;70.25;102040.75;4979829;29;20191;-77
2022/03/09 01:29:30;;;;;;;43.80;30.40;;;1.00;99.90;;;0.74;70.33;102040.56;4979823;29;20307;-75
2022/03/09 01:31:59;;;;;;;49.80;32.75;;;1.00;99.90;;;0.70;70.81;102044.44;4979739;28;20462;-76
2022/03/09 01:34:28;;;;;;;41.50;31.42;;;0.90;99.90;;;0.54;71.21;102038.50;4979713;28;20176;-75
2022/03/09 01:36:57;;;;;;;41.63;32.85;;;0.80;99.90;;;0.40;71.29;102043.00;4966976;28;20192;-77
2022/03/09 01:39:26;;;;;;;41.97;33.60;;;0.80;99.90;;;0.34;71.91;102035.44;4960026;29;20426;-76
2022/03/09 01:41:56;;;;;;;41.88;32.10;;;0.70;99.90;;;0.36;72.23;102025.53;4958151;28;20211;-75
2022/03/09 01:44:27;;;;;;;37.67;32.72;;;0.60;99.90;;;0.33;72.02;102031.09;4956695;28;20536;-75
2022/03/09 01:46:56;;;;;;;42.10;30.48;;;0.60;99.90;;;0.41;72.47;102023.41;4940515;29;20196;-75
2022/03/09 01:49:26;;;;;;;45.70;32.50;;;0.70;99.90;;;0.63;71.90;102028.03;4958292;29;20243;-76
2022/03/09 01:52:00;;;;;;;47.35;30.88;;;0.70;99.90;;;0.62;71.68;102025.50;4958204;28;20303;-75
2022/03/09 01:54:30;;;;;;;49.67;34.80;;;0.80;99.90;;;0.76;71.05;102026.19;4958443;29;20227;-76
2022/03/09 01:57:03;;;;;;;43.25;30.73;;;0.90;99.90;;;0.44;71.58;102014.31;4941675;29;20188;-75
2022/03/09 01:59:32;;;;;;;46.80;31.40;;;0.80;99.90;;;0.25;71.83;102020.09;4958500;29;20257;-75
2022/03/09 02:02:01;;;;;;;44.42;32.00;;;0.60;99.90;;;0.36;72.37;102014.03;4957417;29;20219;-75
2022/03/09 02:04:31;;;;;;;42.13;32.90;;;0.60;99.90;;;0.26;72.60;102015.63;4965250;29;20196;-75
2022/03/09 02:07:00;;;;;;;37.95;31.00;;;0.60;99.90;;;0.28;72.56;102021.72;4967760;29;20354;-75
2022/03/09 02:09:44;;;;;;;47.95;33.05;;;0.60;99.90;;;0.48;72.72;102021.16;4967241;29;20518;-74
2022/03/09 02:12:18;;;;;;;38.90;29.63;;;0.70;99.90;;;0.27;72.94;102020.88;4966303;28;20531;-74
2022/03/09 02:14:50;;;;;;;37.47;30.92;;;0.60;99.90;;;0.60;72.52;102022.06;4965437;29;20231;-74
2022/03/09 02:17:26;;;;;;;45.72;32.38;;;0.70;99.90;;;0.89;72.01;102018.13;4964780;29;20251;-76
2022/03/09 02:19:56;;;;;;;46.08;35.42;;;0.90;99.90;;;0.78;72.33;102020.72;4956781;29;20199;-75
2022/03/09 02:22:33;;;;;;;49.60;34.22;;;0.90;99.90;;;0.68;72.36;102014.38;4956932;28;20204;-75
2022/03/09 02:25:07;;;;;;;48.50;33.85;;;0.90;99.90;;;0.64;72.64;102023.53;4957359;29;20176;-75
2022/03/09 02:27:37;;;;;;;47.92;33.25;;;0.80;99.90;;;0.53;72.58;102028.81;4959358;29;20172;-75
2022/03/09 02:30:09;;;;;;;40.92;32.95;;;0.80;99.90;;;0.28;72.87;102027.91;4970924;28;20207;-74
2022/03/09 02:32:42;;;;;;;38.50;30.60;;;0.70;99.90;;;0.08;72.92;102024.94;4956309;29;20176;-75
2022/03/09 02:35:13;;;;;;;49.17;31.17;;;0.50;99.90;;;0.35;73.44;102029.16;4956488;29;20262;-75
2022/03/09 02:37:43;;;;;;;40.70;32.05;;;0.60;99.90;;;0.30;73.12;102025.09;4956724;29;20184;-75
2022/03/09 02:40:15;;;;;;;36.60;29.15;;;0.60;99.90;;;0.37;72.76;102019.25;4939193;28;20564;-75
2022/03/09 02:42:44;;;;;;;51.38;30.63;;;0.60;99.90;;;0.40;72.42;102028.81;4956474;29;20575;-75
2022/03/09 02:45:13;;;;;;;51.80;30.65;;;0.60;99.90;;;0.55;72.82;102021.56;4956924;29;20212;-76
2022/03/09 02:47:44;;;;;;;49.63;32.45;;;0.70;99.90;;;0.49;72.65;102024.66;4957398;29;20183;-75
2022/03/09 02:50:15;;;;;;;49.30;32.13;;;0.70;99.90;;;0.46;72.38;102024.88;4957040;28;20216;-75
2022/03/09 02:52:46;;;;;;;45.25;32.30;;;0.70;99.90;;;0.27;72.41;102026.19;4956224;29;20227;-75
2022/03/09 02:55:15;;;;;;;51.33;33.28;;;0.60;99.90;;;0.27;72.55;102023.53;4955609;28;20204;-75
2022/03/09 02:57:45;;;;;;;46.28;31.40;;;0.60;99.90;;;0.33;73.06;102031.09;4954827;29;20223;-75
2022/03/09 03:00:14;;;;;;;38.60;30.63;;;0.60;99.90;;;0.51;72.51;102025.41;4938569;28;20195;-75
2022/03/09 03:02:43;;;;;;;45.90;31.92;;;0.60;99.90;;;0.48;72.38;102025.63;4956069;29;20180;-74
2022/03/09 03:05:12;;;;;;;42.85;31.70;;;0.60;99.90;;;0.57;72.59;102022.31;4938650;29;20240;-75
2022/03/09 03:07:41;;;;;;;41.85;31.88;;;0.70;99.90;;;0.43;72.60;102031.28;4956228;29;20666;-74
2022/03/09 03:10:12;;;;;;;42.15;33.45;;;0.60;99.90;;;0.61;72.37;102029.97;4956157;29;20176;-74
2022/03/09 03:12:41;;;;;;;42.63;30.23;;;0.70;99.90;;;0.63;72.09;102043.19;4956453;29;20715;-75
2022/03/09 03:15:10;;;;;;;40.85;30.17;;;0.70;99.90;;;0.56;72.36;102031.25;4956401;29;20280;-75
2022/03/09 03:17:40;;;;;;;47.92;32.40;;;0.70;99.90;;;0.61;72.26;102039.75;4956316;29;20200;-76
2022/03/09 03:20:10;;;;;;;50.08;28.98;;;0.70;99.90;;;0.34;72.41;102032.75;4938956;29;20231;-75
2022/03/09 03:22:38;;;;;;;42.53;29.55;;;0.60;99.90;;;0.43;72.24;102026.81;4956584;29;20247;-75
2022/03/09 03:25:08;;;;;;;49.45;32.92;;;0.60;99.90;;;0.12;72.60;102021.94;4954982;29;20559;-74
2022/03/09 03:27:38;;;;;;;46.72;30.70;;;0.40;99.90;;;-0.10;73.36;102025.22;4956256;29;20284;-74
2022/03/09 03:30:08;;;;;;;49.72;32.55;;;0.30;99.90;;;0.08;73.44;102025.78;4956325;29;20185;-75
2022/03/09 03:32:37;;;;;;;40.28;29.50;;;0.30;99.90;;;0.21;73.48;102018.63;4957273;29;20263;-73
2022/03/09 03:35:08;;;;;;;39.30;28.50;;;0.30;99.90;;;0.38;72.98;102028.94;4956803;29;20203;-75
2022/03/09 03:37:36;;;;;;;42.70;30.38;;;0.50;99.90;;;0.17;72.63;102025.13;4957114;29;20195;-76
2022/03/09 03:40:07;;;;;;;41.50;30.35;;;0.40;99.90;;;0.02;72.73;102026.19;4955525;29;20199;-75
2022/03/09 03:42:37;;;;;;;46.38;29.13;;;0.40;99.90;;;-0.03;72.97;102034.50;4956901;28;20291;-75
2022/03/09 03:45:08;;;;;;;41.65;28.70;;;0.30;99.90;;;-0.09;73.58;102031.41;4959606;29;20210;-75
2022/03/09 03:47:37;;;;;;;48.08;31.23;;;0.20;99.90;;;-0.09;73.76;102034.06;4958456;29;20536;-75
2022/03/09 03:50:07;;;;;;;39.33;30.83;;;0.20;99.90;;;-0.20;74.22;102044.63;4956848;29;20212;-75
2022/03/09 03:52:36;;;;;;;47.67;31.02;;;0.10;99.90;;;0.06;74.42;102043.66;4971595;28;20549;-74
2022/03/09 03:55:06;;;;;;;43.35;30.88;;;0.20;99.90;;;0.03;73.56;102043.88;4975291;28;20189;-74
2022/03/09 03:57:35;;;;;;;38.45;28.77;;;0.30;99.90;;;-0.12;74.10;102047.59;4973977;29;20191;-75
2022/03/09 04:00:08;;;;;;;39.65;29.23;;;0.20;99.90;;;0.05;74.09;102047.25;4990586;28;20200;-74
2022/03/09 04:02:37;;;;;;;38.63;30.05;;;0.20;99.90;;;-0.07;73.64;102053.44;4975593;29;20253;-74
2022/03/09 04:05:07;;;;;;;42.67;29.42;;;0.20;99.90;;;-0.16;74.06;102051.44;4991034;28;20200;-75
2022/03/09 04:07:36;;;;;;;42.17;30.95;;;0.10;99.90;;;0.03;74.01;102051.88;4959951;28;20630;-75
2022/03/09 04:10:06;;;;;;;46.65;28.92;;;0.20;99.90;;;-0.21;74.16;102057.06;4943309;29;20644;-76
2022/03/09 04:12:35;;;;;;;39.70;29.05;;;0.10;99.90;;;-0.09;74.31;102058.88;4964397;28;20200;-76
2022/03/09 04:15:07;;;;;;;34.45;27.17;;;0.10;99.90;;;-0.31;74.68;102065.75;4948154;29;20192;-75
2022/03/09 04:17:43;;;;;;;40.80;30.20;;;0.00;99.90;;;-0.37;75.12;102060.84;4964778;29;20223;-75
2022/03/09 04:20:14;;;;;;;42.05;30.52;;;0.00;99.90;;;-0.40;74.88;102066.38;4978585;28;20211;-75
2022/03/09 04:22:44;;;;;;;37.97;27.30;;;0.00;99.90;;;-0.14;74.58;102058.34;4958230;29;20303;-75
2022/03/09 04:25:14;;;;;;;40.17;28.80;;;0.10;99.90;;;0.02;74.59;102058.13;4959783;29;20354;-75
2022/03/09 04:27:42;;;;;;;40.38;29.40;;;0.10;99.90;;;0.19;73.60;102063.16;4959560;29;20180;-75
2022/03/09 04:30:13;;;;;;;37.90;28.25;;;0.30;99.90;;;0.15;73.93;102058.97;4959380;29;20180;-75
2022/03/09 04:32:42;;;;;;;42.22;30.38;;;0.30;99.90;;;0.00;73.49;102063.56;4958157;29;20192;-76
2022/03/09 04:35:11;;;;;;;42.95;30.83;;;0.30;99.90;;;-0.17;74.29;102065.69;4960165;29;20207;-76
2022/03/09 04:37:40;;;;;;;38.65;30.02;;;0.20;99.90;;;-0.35;74.45;102064.28;4960097;29;20181;-75
2022/03/09 04:40:12;;;;;;;35.70;27.55;;;0.10;99.90;;;-0.29;75.00;102064.69;4960412;29;20671;-74
2022/03/09 04:42:41;;;;;;;40.20;29.98;;;0.00;99.90;;;-0.38;74.93;102065.31;4968518;29;20228;-75
2022/03/09 04:45:14;;;;;;;43.95;28.55;;;0.00;99.90;;;-0.29;74.68;102061.22;4974348;29;20196;-75
2022/03/09 04:47:43;;;;;;;39.83;26.90;;;0.00;99.90;;;-0.38;75.11;102067.13;4966311;29;20249;-74
2022/03/09 04:50:14;;;;;;;35.83;27.88;;;0.00;99.90;;;-0.19;74.37;102064.91;4961387;28;20172;-75
2022/03/09 04:52:43;;;;;;;44.67;28.58;;;0.10;99.90;;;-0.30;74.71;102062.16;4961154;29;20243;-75
2022/03/09 04:55:16;;;;;;;46.30;30.55;;;0.10;99.90;;;-0.50;75.12;102061.69;4942998;29;20188;-76
2022/03/09 04:57:44;;;;;;;44.20;27.60;;;-0.10;99.90;;;-0.46;76.10;102057.88;4960886;29;20204;-75
2022/03/09 05:00:17;;;;;;;43.95;29.35;;;-0.10;99.90;;;-0.55;76.37;102058.50;4971235;28;20188;-76
2022/03/09 05:02:46;;;;;;;42.67;26.80;;;-0.20;99.90;;;-0.25;75.83;102060.91;4987303;28;20196;-75
2022/03/09 05:05:15;;;;;;;33.45;26.13;;;-0.10;99.90;;;-0.35;75.78;102058.97;4971782;29;20192;-75
2022/03/09 05:07:44;;;;;;;34.70;25.38;;;-0.10;99.90;;;-0.46;76.28;102057.88;4962045;29;20410;-76
2022/03/09 05:10:13;;;;;;;31.27;23.98;;;-0.20;99.90;;;-0.27;75.67;102061.94;4958452;28;20177;-75
2022/03/09 05:12:42;;;;;;;33.70;23.08;;;-0.10;99.90;;;-0.23;75.31;102060.78;4959331;29;20271;-76
2022/03/09 05:15:11;;;;;;;40.45;24.52;;;0.00;99.90;;;-0.44;76.23;102061.25;4958865;29;20183;-74
2022/03/09 05:17:45;;;;;;;28.35;22.13;;;-0.10;99.90;;;-0.32;76.23;102053.41;4958716;28;20556;-76
2022/03/09 05:20:15;;;;;;;26.90;21.25;;;-0.10;99.90;;;-0.35;75.96;102053.63;4973349;28;20192;-75
2022/03/09 05:22:44;;;;;;;30.40;21.65;;;0.00;99.90;;;-0.46;76.40;102057.00;4959294;29;20223;-76
2022/03/09 05:25:13;;;;;;;29.23;23.13;;;-0.10;99.90;;;-0.53;76.45;102056.56;4958015;29;20280;-74
2022/03/09 05:27:42;;;;;;;34.03;24.45;;;-0.10;99.90;;;-0.44;76.77;102053.28;4957483;29;20184;-75
2022/03/09 05:30:12;;;;;;;25.75;20.35;;;-0.10;99.90;;;-0.49;76.67;102060.75;4958381;29;20196;-76
2022/03/09 05:32:43;;;;;;;28.20;20.90;;;-0.10;99.90;;;-0.47;77.25;102058.81;4957826;29;20184;-75
2022/03/09 05:35:12;;;;;;;32.05;22.45;;;-0.10;99.90;;;-0.50;76.98;102067.00;4957472;29;20224;-76
2022/03/09 05:37:44;;;;;;;27.92;19.95;;;-0.20;99.90;;;-0.36;76.55;102062.56;4957463;29;20177;-76
2022/03/09 05:40:15;;;;;;;32.10;21.45;;;-0.10;99.90;;;-0.21;76.91;102067.72;4957434;28;20280;-75
2022/03/09 05:42:44;;;;;;;24.40;20.25;;;0.00;99.90;;;-0.25;76.25;102073.34;4956853;29;20212;-76
2022/03/09 05:45:20;;;;;;;27.88;21.10;;;0.00;99.90;;;0.00;75.53;102063.56;4958188;29;20182;-75
2022/03/09 05:47:54;;;;;;;26.90;19.83;;;0.10;99.90;;;-0.16;75.51;102076.22;4957797;29;20604;-76
2022/03/09 05:50:23;;;;;;;31.83;19.50;;;0.10;99.90;;;-0.07;75.71;102080.91;4956910;28;20190;-75
2022/03/09 05:52:53;;;;;;;30.00;22.10;;;0.10;99.90;;;-0.22;76.15;102081.09;4957292;29;20193;-75
2022/03/09 05:55:22;;;;;;;28.15;20.52;;;0.10;99.90;;;-0.26;76.41;102090.25;4957715;29;20244;-75
2022/03/09 05:57:51;;;;;;;42.08;23.33;;;0.00;99.90;;;-0.18;76.03;102083.44;4958122;29;20279;-75
2022/03/09 06:00:19;;;;;;;31.15;20.10;;;0.10;99.90;;;-0.01;76.55;102090.28;4958513;28;20184;-76
2022/03/09 06:02:48;;;;;;;28.25;19.60;;;0.20;99.90;;;0.14;75.82;102099.91;4956783;29;20212;-76
2022/03/09 06:05:21;;;;;;;28.63;19.52;;;0.30;99.90;;;0.24;75.64;102097.44;4957930;29;20200;-75
2022/03/09 06:07:52;;;;;;;25.25;18.77;;;0.30;99.90;;;0.12;75.26;102107.13;4958354;29;20176;-74
2022/03/09 06:10:21;;;;;;;27.17;20.17;;;0.30;99.90;;;0.27;75.74;102105.22;4956734;28;20203;-75
2022/03/09 06:12:51;;;;;;;30.75;18.55;;;0.40;99.90;;;0.54;74.26;102113.06;4958335;29;20183;-75
2022/03/09 06:15:20;;;;;;;25.92;20.05;;;0.60;99.90;;;0.54;74.10;102110.41;4972789;28;20279;-75
2022/03/09 06:17:52;;;;;;;26.27;19.83;;;0.70;99.90;;;0.44;74.46;102108.38;4958927;29;20182;-74
2022/03/09 06:20:26;;;;;;;27.38;21.13;;;0.60;99.90;;;0.40;74.56;102106.91;4958816;28;20200;-75
2022/03/09 06:22:55;;;;;;;24.08;18.30;;;0.60;99.90;;;0.52;74.77;102110.53;4957020;29;20286;-77
2022/03/09 06:25:24;;;;;;;28.42;19.35;;;0.70;99.90;;;0.77;74.38;102114.97;4956853;29;20686;-75
2022/03/09 06:27:55;;;;;;;25.38;19.13;;;0.80;99.90;;;0.89;73.71;102119.41;4956440;29;20328;-75
2022/03/09 06:30:28;;;;;;;27.02;18.20;;;0.90;99.90;;;0.98;73.36;102113.41;4955602;28;20191;-76
2022/03/09 06:32:57;;;;;;;27.20;21.00;;;1.10;99.90;;;0.97;73.11;102116.22;4955736;29;20181;-75
2022/03/09 06:35:28;;;;;;;24.10;18.17;;;1.10;99.90;;;1.05;73.30;102119.19;4955377;28;20196;-76
2022/03/09 06:37:58;;;;;;;30.15;21.55;;;1.10;99.90;;;1.17;72.72;102124.44;4955645;29;20670;-76
2022/03/09 06:40:27;;;;;;;26.52;20.85;;;1.20;99.90;;;1.30;72.05;102124.44;4955449;28;20181;-76
2022/03/09 06:43:00;;;;;;;30.23;19.13;;;1.30;99.90;;;1.38;71.75;102124.72;4962507;29;20204;-75
2022/03/09 06:45:30;;;;;;;26.52;19.27;;;1.40;99.90;;;1.64;70.69;102117.44;4938600;29;20196;-76
2022/03/09 06:48:01;;;;;;;29.60;22.40;;;1.60;99.90;;;1.66;70.90;102123.50;4955551;29;20597;-75
2022/03/09 06:50:32;;;;;;;25.98;21.55;;;1.60;99.90;;;1.86;70.59;102122.84;4955524;28;20191;-77
2022/03/09 06:53:01;;;;;;;32.15;18.73;;;1.80;99.90;;;1.90;69.88;102127.00;4955872;29;20172;-75
2022/03/09 06:55:30;;;;;;;25.73;19.90;;;1.90;99.90;;;2.09;69.25;102121.09;4957642;29;20191;-75
2022/03/09 06:58:00;;;;;;;29.63;20.08;;;2.00;99.90;;;2.12;69.26;102131.56;4958668;29;20203;-76
2022/03/09 07:00:29;;;;;;;27.92;21.20;;;2.10;99.90;;;2.11;69.65;102129.84;4958496;28;20280;-76
2022/03/09 07:02:59;;;;;;;29.42;19.33;;;2.10;99.90;;;2.32;68.64;102130.03;4959251;29;20220;-77
2022/03/09 07:05:29;;;;;;;25.13;18.80;;;2.20;99.90;;;2.46;68.30;102128.00;4963406;29;20215;-75
2022/03/09 07:07:59;;;;;;;24.40;18.35;;;2.40;99.80;;;2.60;67.64;102122.41;4959896;29;20187;-75
2022/03/09 07:10:28;;;;;;;26.08;21.35;;;2.50;96.20;;;2.70;67.64;102132.38;4955142;28;20187;-76
2022/03/09 07:12:57;;;;;;;26.98;22.58;;;2.60;95.80;;;2.83;67.25;102131.28;4955196;29;20205;-77
2022/03/09 07:15:31;;;;;;;35.15;26.00;;;2.70;94.10;;;2.93;66.52;102128.72;4954445;29;20623;-76
2022/03/09 07:18:00;;;;;;;26.45;21.20;;;2.80;91.20;;;3.21;65.46;102130.00;4954937;29;20195;-77
2022/03/09 07:20:29;;;;;;;27.08;21.48;;;3.10;85.60;;;3.42;64.37;102129.13;4954609;28;20188;-76
2022/03/09 07:23:00;;;;;;;31.55;22.40;;;3.20;76.60;;;3.53;64.36;102128.25;4953595;29;20587;-76
2022/03/09 07:25:29;;;;;;;34.83;25.27;;;3.40;71.60;;;3.78;63.53;102130.56;4954672;29;20183;-76
2022/03/09 07:28:03;;;;;;;38.00;22.55;;;3.60;65.80;;;3.92;62.91;102127.56;4954655;29;20601;-75
2022/03/09 07:30:32;;;;;;;31.70;24.42;;;3.80;58.60;;;4.12;62.14;102125.88;4954495;28;20189;-76
2022/03/09 07:33:01;;;;;;;42.33;23.60;;;3.90;53.60;;;4.16;62.18;102131.84;4954286;29;20184;-76
2022/03/09 07:35:30;;;;;;;27.77;21.95;;;4.00;53.20;;;4.28;61.76;102133.47;4954264;29;20219;-75
2022/03/09 07:38:01;;;;;;;33.28;24.77;;;4.20;49.80;;;4.36;61.05;102136.31;4954535;29;20200;-77
2022/03/09 07:40:29;;;;;;;34.67;25.98;;;4.20;46.80;;;4.44;61.16;102136.53;4954068;28;20207;-76
2022/03/09 07:43:00;;;;;;;29.98;23.88;;;4.30;45.60;;;4.65;60.30;102137.34;4956989;28;20565;-76
2022/03/09 07:45:29;;;;;;;33.17;24.70;;;4.50;43.90;;;4.79;60.02;102142.34;4957726;29;20267;-75
2022/03/09 07:47:58;;;;;;;31.63;23.30;;;4.70;41.60;;;4.91;59.55;102142.25;4958041;29;20188;-74
2022/03/09 07:50:27;;;;;;;32.70;24.17;;;4.80;40.10;;;4.95;59.41;102141.00;4956759;28;20192;-75
2022/03/09 07:52:57;;;;;;;31.92;24.83;;;4.80;38.30;;;5.00;59.43;102147.66;4957865;29;20177;-74
2022/03/09 07:55:27;;;;;;;31.13;24.60;;;4.90;37.80;;;5.16;58.93;102145.31;4958110;29;20192;-73
2022/03/09 07:57:57;;;;;;;30.42;22.80;;;5.00;37.60;;;5.42;58.23;102142.97;4941015;29;20254;-75
2022/03/09 08:00:27;;;;;;;34.90;22.17;;;5.20;35.40;;;5.42;57.92;102140.28;4957548;28;20188;-75
2022/03/09 08:02:56;;;;;;;36.10;22.13;;;5.30;33.50;;;5.59;57.53;102139.63;4957674;29;20267;-75
2022/03/09 08:05:44;;;;;;;24.73;17.83;;;5.40;32.60;;;5.77;56.78;102142.44;4957889;29;20196;-75
2022/03/09 08:08:13;;;;;;;22.00;18.45;;;5.70;30.00;;;5.82;56.49;102139.34;4957531;29;20553;-74
2022/03/09 08:10:43;;;;;;;33.42;20.20;;;5.70;29.20;;;6.09;56.03;102147.59;4957668;28;20258;-75
2022/03/09 08:13:12;;;;;;;22.67;17.63;;;5.90;29.00;;;6.22;55.59;102148.13;4958584;29;20180;-75
2022/03/09 08:15:41;;;;;;;24.30;19.15;;;6.10;27.20;;;6.31;55.36;102141.88;4969403;29;20179;-75
2022/03/09 08:18:11;;;;;;;23.48;20.27;;;6.20;26.70;;;6.51;55.02;102148.94;4955568;28;20221;-76
2022/03/09 08:20:42;;;;;;;27.25;17.55;;;6.30;26.00;;;6.51;54.53;102143.53;4962245;28;20200;-77
2022/03/09 08:23:12;;;;;;;27.63;17.65;;;6.40;24.50;;;6.61;53.98;102145.34;4976789;28;20249;-77
2022/03/09 08:25:41;;;;;;;23.02;17.77;;;6.50;23.30;;;6.70;53.92;102137.25;4976902;28;20181;-74
2022/03/09 08:28:11;;;;;;;24.77;15.75;;;6.60;22.70;;;6.83;53.35;102147.69;4948459;29;20260;-77
2022/03/09 08:30:40;;;;;;;24.55;16.85;;;6.70;22.30;;;6.89;52.88;102149.78;4938951;29;20220;-76
2022/03/09 08:33:11;;;;;;;24.88;17.98;;;6.90;21.20;;;6.88;53.39;102148.09;4939148;29;20173;-76
2022/03/09 08:35:40;;;;;;;25.42;18.20;;;6.80;21.50;;;7.13;52.90;102152.78;4938986;29;20193;-76
2022/03/09 08:38:09;;;;;;;25.92;16.00;;;6.90;21.40;;;7.31;52.02;102142.91;4938367;29;20711;-75
2022/03/09 08:40:38;;;;;;;24.98;14.82;;;7.10;19.90;;;7.50;51.56;102151.91;4938532;29;20718;-75
2022/03/09 08:43:07;;;;;;;23.15;15.32;;;7.30;19.10;;;7.55;51.37;102152.28;4938709;29;20177;-75
2022/03/09 08:45:37;;;;;;;20.73;16.33;;;7.40;18.70;;;7.82;50.83;102146.81;4938630;29;20545;-75
2022/03/09 08:48:07;;;;;;;21.40;16.92;;;7.50;18.80;;;7.87;51.30;102149.91;4939360;29;20208;-76
2022/03/09 08:50:36;;;;;;;27.17;16.63;;;7.60;18.50;;;8.05;50.43;102142.66;4938405;29;20212;-75
2022/03/09 08:53:09;;;;;;;17.00;14.27;;;7.80;17.60;;;8.22;49.45;102144.50;4937543;29;20176;-75
2022/03/09 08:55:38;;;;;;;21.85;14.90;;;8.00;15.80;;;8.29;49.61;102145.59;4938160;29;20177;-76
2022/03/09 08:58:07;;;;;;;17.30;12.52;;;8.00;15.90;;;8.33;48.38;102145.28;4936666;29;20226;-75
2022/03/09 09:00:37;;;;;;;18.38;13.20;;;8.20;13.80;;;8.15;48.53;102140.72;4921013;29;20252;-74
2022/03/09 09:03:06;;;;;;;13.82;10.73;;;8.10;13.60;;;8.26;48.86;102135.09;4939239;29;20181;-76
2022/03/09 09:05:35;;;;;;;18.55;12.45;;;8.10;13.60;;;8.44;48.81;102142.31;4939395;29;20684;-76
2022/03/09 09:08:05;;;;;;;13.80;10.07;;;8.20;14.00;;;8.51;48.04;102144.25;4940285;29;20193;-75
2022/03/09 09:10:36;;;;;;;13.73;10.60;;;8.40;12.30;;;8.27;48.18;102144.03;4941121;29;20216;-75
2022/03/09 09:13:08;;;;;;;14.23;10.10;;;8.40;12.00;;;8.67;47.35;102148.88;4941242;29;20173;-76
2022/03/09 09:15:38;;;;;;;13.13;8.40;;;8.50;11.60;;;8.61;46.73;102144.97;4940449;29;20193;-76
2022/03/09 09:18:08;;;;;;;15.35;9.60;;;8.60;10.50;;;8.68;47.04;102145.16;4937719;29;20272;-75
2022/03/09 09:20:54;;;;;;;12.05;10.10;;;8.50;10.50;;;8.76;47.02;102145.25;4919798;29;20221;-76
2022/03/09 09:23:23;;;;;;;15.02;11.23;;;8.60;10.50;;;8.95;46.75;102149.56;4951232;29;20212;-76
2022/03/09 09:25:52;;;;;;;14.23;9.73;;;8.70;10.40;;;9.08;46.34;102148.09;4957457;29;20191;-76
2022/03/09 09:28:21;;;;;;;12.75;9.75;;;8.80;10.00;;;9.22;46.06;102145.78;4958152;29;20224;-77
2022/03/09 09:30:51;;;;;;;12.48;8.65;;;9.00;9.70;;;9.21;45.72;102146.78;4941698;29;20231;-76
2022/03/09 09:33:20;;;;;;;17.92;10.38;;;9.00;9.00;;;9.23;45.69;102153.72;4944385;29;20232;-77
2022/03/09 09:35:50;;;;;;;15.88;11.25;;;9.00;8.60;;;9.27;45.83;102148.84;4937460;29;20201;-76
2022/03/09 09:38:19;;;;;;;22.52;11.70;;;9.10;8.60;;;9.24;45.87;102146.47;4954000;29;20193;-76
2022/03/09 09:40:53;;;;;;;17.93;11.03;;;9.20;8.30;;;9.44;45.52;102147.91;4926557;29;20587;-76
2022/03/09 09:43:24;;;;;;;15.68;8.68;;;9.20;8.30;;;9.56;44.98;102154.69;4942925;29;20795;-76
2022/03/09 09:45:56;;;;;;;14.00;9.70;;;9.40;7.60;;;9.82;44.80;102147.31;4942348;29;20256;-77
2022/03/09 09:48:25;;;;;;;11.90;8.98;;;9.50;7.50;;;9.86;44.15;102148.66;4939814;29;20200;-79
2022/03/09 09:51:01;;;;;;;13.93;8.38;;;9.60;6.60;;;9.97;43.41;102151.00;4939474;29;20561;-78
2022/03/09 09:53:33;;;;;;;14.40;8.73;;;9.80;5.70;;;9.92;43.50;102150.66;4939000;29;20197;-79
2022/03/09 09:56:02;;;;;;;9.70;7.43;;;9.80;5.30;;;9.75;44.11;102151.69;4940535;29;20484;-78
2022/03/09 09:58:33;;;;;;;21.17;9.90;;;9.70;5.50;;;9.83;43.68;102142.72;4956295;29;20177;-79
2022/03/09 10:01:04;;;;;;;12.40;8.73;;;9.70;5.20;;;10.06;43.10;102148.34;4956322;29;20448;-79
2022/03/09 10:03:33;;;;;;;12.18;8.98;;;9.80;4.70;;;9.92;43.50;102137.16;4960115;28;20187;-78
2022/03/09 10:06:02;;;;;;;11.55;7.85;;;9.80;4.80;;;10.31;43.26;102141.94;4973750;28;20236;-80
2022/03/09 10:08:38;;;;;;;13.03;8.97;;;10.00;4.20;;;10.29;42.29;102134.00;4948154;29;20176;-78
2022/03/09 10:11:07;;;;;;;11.10;8.30;;;10.10;3.10;;;10.42;42.52;102139.72;4939684;29;20460;-78
2022/03/09 10:13:39;;;;;;;10.30;7.80;;;10.20;3.30;;;10.67;41.89;102136.97;4944513;29;20822;-78
2022/03/09 10:16:18;;;;;;;13.90;9.30;;;10.30;2.70;;;10.22;42.30;102137.53;4940662;29;20411;-78
2022/03/09 10:18:51;;;;;;;11.00;8.27;;;10.30;2.00;;;10.09;42.41;102132.59;4944586;29;20398;-79
2022/03/09 10:21:23;;;;;;;14.25;9.88;;;10.10;2.00;;;10.41;42.27;102138.03;4956519;28;20777;-79
2022/03/09 10:23:56;;;;;;;10.80;8.00;;;10.20;2.40;;;10.62;41.86;102129.38;4958190;28;20184;-81
2022/03/09 10:26:28;;;;;;;13.57;8.37;;;10.40;2.20;;;10.65;41.82;102145.25;4942842;29;20456;-80